Time;durP1;ratioP1;P1;durP2;ratioP2;P2;SDS_P1;SDS_P2;PMS_P1;PMS_P2;Temp;Humidity;BMP_temperature;BMP_pressure;BME280_temperature;BME280_humidity;BME280_pressure;Samples;Min_cycle;Max_cycle;Signal;HPM_P1;HPM_P2
2023/01/17 00:00:31;;;;;;;59.17;27.63;;;;;;;;;;6265245;28;20156;-78
2023/01/17 00:03:33;;;;;;;59.70;27.33;;;;;;;;;;6263178;28;22366;-78
2023/01/17 00:09:56;;;;;;;122.68;57.00;;;;;;;;;;6271934;28;20056;-75
2023/01/17 00:13:00;;;;;;;76.85;34.90;;;;;;;;;;6265479;28;20053;-72
2023/01/17 00:16:02;;;;;;;142.25;59.63;;;;;;;;;;6260509;28;20368;-75
2023/01/17 00:26:03;;;;;;;53.30;25.38;;;;;;;;;;6263167;28;20060;-76
2023/01/17 01:34:06;;;;;;;49.88;24.63;;;;;;;;;;6263577;28;20443;-75
2023/01/17 01:37:08;;;;;;;55.15;26.67;;;;;;;;;;6262662;28;20263;-71
2023/01/17 01:40:11;;;;;;;53.63;25.48;;;;;;;;;;6265860;28;20065;-78
2023/01/17 01:43:16;;;;;;;57.72;27.10;;;;;;;;;;6263090;28;20053;-73
2023/01/17 01:46:20;;;;;;;55.33;25.23;;;;;;;;;;6258804;28;20061;-70
2023/01/17 01:49:24;;;;;;;57.78;25.98;;;;;;;;;;6262724;28;20052;-78
2023/01/17 01:52:30;;;;;;;40.47;19.85;;;;;;;;;;6263241;28;20052;-77
2023/01/17 01:55:35;;;;;;;50.70;25.63;;;;;;;;;;6263289;28;20056;-76
2023/01/17 01:58:38;;;;;;;56.35;26.20;;;;;;;;;;6264846;28;20311;-77
2023/01/17 02:01:40;;;;;;;53.97;25.53;;;;;;;;;;6264411;28;20064;-76
2023/01/17 02:04:42;;;;;;;55.70;27.90;;;;;;;;;;6262187;28;20052;-78
2023/01/17 02:07:48;;;;;;;51.47;25.92;;;;;;;;;;6261393;28;20084;-77
2023/01/17 02:10:51;;;;;;;55.47;27.00;;;;;;;;;;6258645;28;20061;-75
2023/01/17 02:13:54;;;;;;;52.45;26.48;;;;;;;;;;6256197;28;20063;-77
2023/01/17 02:17:06;;;;;;;55.22;27.60;;;;;;;;;;6260782;28;20056;-76
2023/01/17 02:20:28;;;;;;;54.25;25.65;;;;;;;;;;6262924;28;20056;-69
2023/01/17 02:24:00;;;;;;;51.47;24.45;;;;;;;;;;6263666;28;20358;-76
2023/01/17 02:27:05;;;;;;;53.25;25.55;;;;;;;;;;6262178;28;20041;-71
2023/01/17 02:30:20;;;;;;;51.75;26.73;;;;;;;;;;6259186;28;20279;-78
2023/01/17 02:33:27;;;;;;;52.55;25.38;;;;;;;;;;6261969;28;20072;-78
2023/01/17 02:36:32;;;;;;;55.13;27.45;;;;;;;;;;6259711;28;20194;-76
2023/01/17 02:39:38;;;;;;;58.47;27.65;;;;;;;;;;6264298;28;20056;-78
2023/01/17 02:42:42;;;;;;;57.65;26.55;;;;;;;;;;6260418;28;20049;-76
2023/01/17 02:45:45;;;;;;;54.25;26.70;;;;;;;;;;6260506;28;20103;-74
2023/01/17 02:48:48;;;;;;;56.90;27.35;;;;;;;;;;6256392;28;20350;-76
2023/01/17 02:52:06;;;;;;;57.90;26.95;;;;;;;;;;6261402;28;20056;-78
2023/01/17 02:55:16;;;;;;;54.85;27.10;;;;;;;;;;6266889;28;20112;-77
2023/01/17 02:58:40;;;;;;;58.17;25.98;;;;;;;;;;6260203;28;20050;-75
2023/01/17 03:01:53;;;;;;;55.65;27.35;;;;;;;;;;6265674;28;20279;-77
2023/01/17 03:04:59;;;;;;;55.45;26.25;;;;;;;;;;6258641;28;20053;-78
2023/01/17 03:08:01;;;;;;;61.83;27.33;;;;;;;;;;6260814;28;20053;-77
2023/01/17 03:11:03;;;;;;;60.15;27.23;;;;;;;;;;6259763;28;20064;-68
2023/01/17 03:14:05;;;;;;;59.60;27.92;;;;;;;;;;6263992;28;20064;-77
2023/01/17 03:17:08;;;;;;;60.92;28.33;;;;;;;;;;6260641;28;20057;-77
2023/01/17 03:20:11;;;;;;;58.75;30.55;;;;;;;;;;6262573;28;20055;-78
2023/01/17 03:23:12;;;;;;;61.47;28.23;;;;;;;;;;6258178;28;20076;-73
2023/01/17 03:26:14;;;;;;;56.97;28.40;;;;;;;;;;6254597;28;20532;-79
2023/01/17 03:29:16;;;;;;;55.25;28.13;;;;;;;;;;6264511;28;20060;-77
2023/01/17 03:32:19;;;;;;;55.60;26.02;;;;;;;;;;6265483;28;20049;-74
2023/01/17 03:35:21;;;;;;;55.60;26.90;;;;;;;;;;6265732;28;20114;-77
2023/01/17 03:38:22;;;;;;;61.22;27.70;;;;;;;;;;6265383;28;20055;-78
2023/01/17 03:41:24;;;;;;;65.57;28.63;;;;;;;;;;6262166;28;20236;-79
2023/01/17 03:44:26;;;;;;;62.83;28.08;;;;;;;;;;6265486;28;20056;-79
2023/01/17 03:47:29;;;;;;;62.45;28.42;;;;;;;;;;6264374;28;20049;-77
2023/01/17 03:50:30;;;;;;;71.35;29.48;;;;;;;;;;6262376;28;20049;-75
2023/01/17 03:53:32;;;;;;;69.20;30.45;;;;;;;;;;6264618;28;20053;-78
2023/01/17 03:56:34;;;;;;;78.88;32.00;;;;;;;;;;6264802;28;20053;-75
2023/01/17 03:59:35;;;;;;;76.65;30.67;;;;;;;;;;6262316;28;20273;-76
2023/01/17 04:02:39;;;;;;;70.28;30.58;;;;;;;;;;6269467;28;20068;-77
2023/01/17 04:05:40;;;;;;;72.30;28.52;;;;;;;;;;6263396;28;20391;-78
2023/01/17 04:08:42;;;;;;;76.70;30.75;;;;;;;;;;6265179;28;20045;-69
2023/01/17 04:11:44;;;;;;;66.80;29.23;;;;;;;;;;6267539;28;20325;-77
2023/01/17 04:14:46;;;;;;;73.55;29.70;;;;;;;;;;6265131;28;20107;-73
2023/01/17 04:17:50;;;;;;;80.05;32.28;;;;;;;;;;6265624;28;20075;-77
2023/01/17 04:20:51;;;;;;;79.90;32.08;;;;;;;;;;6268515;28;20395;-78
2023/01/17 04:23:53;;;;;;;78.25;31.63;;;;;;;;;;6266526;28;20060;-77
2023/01/17 04:26:55;;;;;;;75.07;30.83;;;;;;;;;;6267047;28;20072;-78
2023/01/17 04:29:57;;;;;;;70.85;32.03;;;;;;;;;;6264537;28;20049;-79
2023/01/17 04:33:00;;;;;;;76.95;31.70;;;;;;;;;;6264819;28;20053;-78
2023/01/17 04:36:02;;;;;;;78.85;31.65;;;;;;;;;;6264356;28;20628;-77
2023/01/17 04:39:04;;;;;;;67.35;30.45;;;;;;;;;;6262430;28;20060;-79
2023/01/17 04:42:05;;;;;;;63.53;29.25;;;;;;;;;;6257141;28;20356;-79
2023/01/17 04:45:08;;;;;;;77.25;31.05;;;;;;;;;;6266365;28;20049;-77
2023/01/17 04:48:11;;;;;;;66.25;30.10;;;;;;;;;;6266460;28;20367;-78
2023/01/17 04:51:13;;;;;;;67.97;31.20;;;;;;;;;;6267149;28;20394;-78
2023/01/17 04:54:15;;;;;;;73.30;30.70;;;;;;;;;;6267693;28;20074;-71
2023/01/17 04:57:16;;;;;;;69.30;31.45;;;;;;;;;;6266717;28;20111;-77
2023/01/17 05:00:19;;;;;;;63.83;30.13;;;;;;;;;;6265847;28;20198;-72
2023/01/17 05:03:22;;;;;;;66.95;31.17;;;;;;;;;;6266002;28;20387;-78
2023/01/17 05:06:24;;;;;;;69.88;29.58;;;;;;;;;;6264660;28;20041;-78
2023/01/17 05:09:26;;;;;;;62.92;29.02;;;;;;;;;;6264139;28;20057;-71
2023/01/17 05:12:28;;;;;;;65.70;29.75;;;;;;;;;;6264841;28;20279;-78
2023/01/17 05:15:30;;;;;;;63.17;29.25;;;;;;;;;;6264631;28;20068;-69
2023/01/17 05:18:33;;;;;;;68.65;30.02;;;;;;;;;;6264028;28;20237;-72
2023/01/17 05:21:35;;;;;;;62.15;27.95;;;;;;;;;;6265320;28;20147;-78
2023/01/17 05:24:37;;;;;;;69.25;29.52;;;;;;;;;;6263677;28;20111;-76
2023/01/17 05:27:39;;;;;;;60.58;29.17;;;;;;;;;;6263204;28;20128;-73
2023/01/17 05:30:40;;;;;;;62.95;27.95;;;;;;;;;;6254084;28;20049;-77
2023/01/17 05:33:43;;;;;;;62.72;27.77;;;;;;;;;;6239364;28;20064;-77
2023/01/17 05:36:45;;;;;;;63.33;28.35;;;;;;;;;;6250423;28;20053;-76
2023/01/17 05:39:47;;;;;;;62.85;27.67;;;;;;;;;;6261346;28;20214;-74
2023/01/17 05:42:50;;;;;;;60.83;28.85;;;;;;;;;;6264155;28;20041;-72
2023/01/17 05:45:51;;;;;;;62.90;30.02;;;;;;;;;;6262790;28;20263;-78
2023/01/17 05:48:54;;;;;;;60.83;28.10;;;;;;;;;;6263443;28;20049;-76
2023/01/17 05:51:56;;;;;;;58.65;26.88;;;;;;;;;;6265465;28;20363;-78
2023/01/17 05:54:58;;;;;;;59.83;25.67;;;;;;;;;;6264373;28;20068;-78
2023/01/17 05:58:00;;;;;;;58.78;26.75;;;;;;;;;;6264164;28;20091;-76
2023/01/17 06:01:01;;;;;;;60.72;27.38;;;;;;;;;;6264022;28;20052;-75
2023/01/17 06:04:05;;;;;;;55.92;25.05;;;;;;;;;;6261009;28;20098;-69
2023/01/17 06:07:06;;;;;;;54.00;24.23;;;;;;;;;;6262654;28;20060;-73
2023/01/17 06:10:10;;;;;;;55.28;25.77;;;;;;;;;;6263213;28;20276;-76
2023/01/17 06:13:14;;;;;;;56.78;27.17;;;;;;;;;;6263366;28;20057;-75
2023/01/17 06:16:15;;;;;;;56.15;25.67;;;;;;;;;;6264257;28;20092;-79
2023/01/17 06:19:19;;;;;;;53.50;25.98;;;;;;;;;;6264060;28;20044;-70
2023/01/17 06:22:20;;;;;;;61.05;28.02;;;;;;;;;;6264091;28;20049;-74
2023/01/17 06:25:22;;;;;;;64.95;26.17;;;;;;;;;;6261838;28;20052;-78
2023/01/17 06:28:24;;;;;;;66.40;28.58;;;;;;;;;;6264169;28;20040;-78
2023/01/17 06:31:25;;;;;;;72.40;30.00;;;;;;;;;;6261121;28;20229;-77
2023/01/17 06:34:28;;;;;;;69.90;29.27;;;;;;;;;;6261450;28;20050;-79
2023/01/17 06:37:30;;;;;;;64.13;28.83;;;;;;;;;;6260268;28;20336;-77
2023/01/17 06:40:32;;;;;;;73.22;32.65;;;;;;;;;;6262045;28;20484;-78
2023/01/17 06:43:34;;;;;;;73.72;32.03;;;;;;;;;;6262240;28;20101;-77
2023/01/17 06:46:35;;;;;;;75.50;32.03;;;;;;;;;;6263981;28;20380;-78
2023/01/17 06:49:38;;;;;;;76.07;33.70;;;;;;;;;;6265530;28;20059;-78
2023/01/17 06:52:41;;;;;;;82.95;33.72;;;;;;;;;;6264063;28;20192;-78
2023/01/17 06:55:42;;;;;;;82.35;33.92;;;;;;;;;;6263406;28;20064;-78
2023/01/17 06:58:44;;;;;;;84.45;33.42;;;;;;;;;;6261560;28;20108;-77
2023/01/17 07:01:46;;;;;;;73.78;31.55;;;;;;;;;;6262948;28;20053;-71
2023/01/17 07:04:49;;;;;;;73.65;31.05;;;;;;;;;;6264288;28;20056;-77
2023/01/17 07:07:50;;;;;;;78.68;31.40;;;;;;;;;;6263522;28;20359;-77
2023/01/17 07:10:58;;;;;;;63.78;28.65;;;;;;;;;;6262182;28;20049;-77
2023/01/17 07:13:59;;;;;;;70.50;30.35;;;;;;;;;;6262687;28;20064;-78
2023/01/17 07:17:01;;;;;;;72.20;30.75;;;;;;;;;;6261083;28;20053;-78
2023/01/17 07:20:05;;;;;;;69.88;30.90;;;;;;;;;;6261950;28;20064;-77
2023/01/17 07:23:07;;;;;;;72.70;31.23;;;;;;;;;;6262409;28;20037;-78
2023/01/17 07:26:09;;;;;;;67.75;30.08;;;;;;;;;;6260352;28;20099;-75
2023/01/17 07:29:10;;;;;;;67.70;30.48;;;;;;;;;;6261834;28;20056;-77
2023/01/17 07:32:12;;;;;;;66.57;29.80;;;;;;;;;;6263562;28;20061;-78
2023/01/17 07:35:15;;;;;;;66.57;29.45;;;;;;;;;;6268162;28;20053;-74
2023/01/17 07:38:18;;;;;;;63.85;29.00;;;;;;;;;;6268071;28;20108;-70
2023/01/17 07:41:20;;;;;;;60.40;26.77;;;;;;;;;;6267717;28;20087;-77
2023/01/17 07:44:22;;;;;;;66.38;29.08;;;;;;;;;;6267385;28;20040;-75
2023/01/17 07:47:23;;;;;;;64.35;28.98;;;;;;;;;;6267031;28;20053;-77
2023/01/17 07:50:27;;;;;;;61.65;26.98;;;;;;;;;;6269548;28;20098;-78
2023/01/17 07:53:30;;;;;;;63.58;28.88;;;;;;;;;;6269539;28;20052;-78
2023/01/17 07:56:33;;;;;;;62.08;26.15;;;;;;;;;;6267896;28;20040;-78
2023/01/17 07:59:35;;;;;;;55.25;26.77;;;;;;;;;;6265428;28;20053;-78
2023/01/17 08:02:37;;;;;;;64.00;27.27;;;;;;;;;;6267431;28;20253;-77
2023/01/17 08:05:41;;;;;;;62.75;27.65;;;;;;;;;;6266973;28;20091;-72
2023/01/17 08:08:43;;;;;;;68.25;28.70;;;;;;;;;;6266244;28;20044;-70
2023/01/17 08:11:45;;;;;;;70.30;31.67;;;;;;;;;;6265268;28;20064;-72
2023/01/17 08:14:46;;;;;;;65.70;28.85;;;;;;;;;;6264805;28;20053;-74
2023/01/17 08:17:51;;;;;;;63.67;29.55;;;;;;;;;;6265544;28;20091;-78
2023/01/17 08:20:55;;;;;;;66.45;29.90;;;;;;;;;;6267344;28;20248;-78
2023/01/17 08:23:56;;;;;;;65.72;29.10;;;;;;;;;;6265686;28;20052;-76
2023/01/17 08:26:58;;;;;;;66.82;29.63;;;;;;;;;;6266675;28;20053;-72
2023/01/17 08:29:59;;;;;;;66.38;28.83;;;;;;;;;;6265873;28;20107;-75
2023/01/17 08:33:01;;;;;;;72.68;28.52;;;;;;;;;;6266697;28;20053;-77
2023/01/17 08:36:04;;;;;;;66.95;28.33;;;;;;;;;;6264419;28;20063;-77
2023/01/17 08:39:06;;;;;;;65.38;29.52;;;;;;;;;;6265958;28;20049;-76
2023/01/17 08:42:08;;;;;;;67.43;30.33;;;;;;;;;;6266873;28;20049;-78
2023/01/17 08:45:11;;;;;;;63.72;28.88;;;;;;;;;;6264019;28;20065;-77
2023/01/17 08:48:12;;;;;;;60.50;27.20;;;;;;;;;;6264715;28;20272;-69
2023/01/17 08:51:15;;;;;;;66.30;28.05;;;;;;;;;;6268163;28;20050;-76
2023/01/17 08:54:17;;;;;;;61.70;26.85;;;;;;;;;;6264163;28;20053;-78
2023/01/17 08:57:19;;;;;;;57.28;25.90;;;;;;;;;;6266323;28;20056;-77
2023/01/17 09:00:21;;;;;;;57.53;28.00;;;;;;;;;;6263624;28;20049;-74
2023/01/17 09:03:23;;;;;;;55.00;27.65;;;;;;;;;;6267746;28;20166;-70
2023/01/17 09:06:26;;;;;;;57.40;27.63;;;;;;;;;;6266566;28;20268;-76
2023/01/17 09:09:28;;;;;;;64.43;28.10;;;;;;;;;;6268642;28;20056;-76
2023/01/17 09:12:31;;;;;;;62.03;28.08;;;;;;;;;;6265580;28;20048;-78
2023/01/17 09:15:33;;;;;;;58.17;27.93;;;;;;;;;;6265474;28;20057;-78
2023/01/17 09:18:36;;;;;;;57.92;27.98;;;;;;;;;;6264095;28;20488;-77
2023/01/17 09:21:39;;;;;;;58.58;27.60;;;;;;;;;;6267949;28;20056;-79
2023/01/17 09:24:41;;;;;;;60.13;26.90;;;;;;;;;;6264259;28;20080;-78
2023/01/17 09:27:45;;;;;;;55.78;25.95;;;;;;;;;;6265274;28;20059;-78
2023/01/17 09:30:47;;;;;;;64.35;26.80;;;;;;;;;;6266287;28;20060;-78
2023/01/17 09:33:49;;;;;;;59.75;27.08;;;;;;;;;;6265775;28;20049;-75
2023/01/17 09:36:52;;;;;;;59.65;29.05;;;;;;;;;;6266465;28;20056;-76
2023/01/17 09:39:54;;;;;;;55.53;25.85;;;;;;;;;;6263659;28;20072;-77
2023/01/17 09:43:00;;;;;;;56.88;25.30;;;;;;;;;;6263372;28;20049;-71
2023/01/17 09:46:02;;;;;;;59.05;25.05;;;;;;;;;;6265676;28;20072;-75
2023/01/17 09:49:07;;;;;;;57.22;24.65;;;;;;;;;;6267178;28;20056;-76
2023/01/17 09:52:13;;;;;;;48.72;23.30;;;;;;;;;;6267435;28;20112;-76
2023/01/17 09:55:16;;;;;;;47.67;22.42;;;;;;;;;;6264594;28;20065;-69
2023/01/17 09:58:20;;;;;;;53.42;23.33;;;;;;;;;;6262106;28;20049;-75
2023/01/17 10:01:26;;;;;;;51.60;21.58;;;;;;;;;;6238663;28;20246;-74
2023/01/17 10:04:38;;;;;;;52.13;23.23;;;;;;;;;;6237800;28;20045;-75
2023/01/17 10:07:47;;;;;;;53.22;22.75;;;;;;;;;;6264807;28;20337;-75
2023/01/17 10:10:57;;;;;;;50.88;22.08;;;;;;;;;;6235670;28;20222;-75
2023/01/17 10:14:06;;;;;;;47.47;19.90;;;;;;;;;;6263160;28;20045;-76
2023/01/17 10:17:14;;;;;;;46.58;20.40;;;;;;;;;;6263396;28;20048;-74
2023/01/17 10:20:32;;;;;;;50.40;21.35;;;;;;;;;;6263800;28;20065;-70
2023/01/17 10:23:50;;;;;;;47.08;20.88;;;;;;;;;;6264007;28;20064;-75
2023/01/17 10:26:55;;;;;;;45.60;20.02;;;;;;;;;;6265303;28;22920;-78
2023/01/17 10:29:56;;;;;;;39.60;18.45;;;;;;;;;;6266433;28;20053;-78
2023/01/17 10:33:00;;;;;;;46.08;18.23;;;;;;;;;;6264398;28;20048;-76
2023/01/17 10:36:06;;;;;;;37.38;15.70;;;;;;;;;;6264690;28;20065;-77
2023/01/17 10:39:15;;;;;;;30.77;16.50;;;;;;;;;;6265108;28;20146;-78
2023/01/17 10:42:25;;;;;;;40.47;16.67;;;;;;;;;;6263333;28;20049;-79
2023/01/17 10:45:28;;;;;;;40.97;16.10;;;;;;;;;;6264988;28;20067;-77
2023/01/17 10:48:35;;;;;;;35.65;15.43;;;;;;;;;;6263323;28;20061;-78
2023/01/17 10:51:49;;;;;;;31.65;13.82;;;;;;;;;;6264422;28;20336;-74
2023/01/17 10:55:04;;;;;;;27.25;12.65;;;;;;;;;;6265059;28;20053;-78
2023/01/17 10:58:07;;;;;;;27.88;12.60;;;;;;;;;;6263060;28;20107;-78
2023/01/17 11:01:15;;;;;;;29.38;14.20;;;;;;;;;;6262595;28;20219;-74
2023/01/17 11:04:20;;;;;;;29.15;13.30;;;;;;;;;;6263306;28;20046;-74
2023/01/17 11:07:23;;;;;;;31.88;14.02;;;;;;;;;;6265203;28;20225;-78
2023/01/17 11:10:43;;;;;;;32.83;14.25;;;;;;;;;;6267261;28;20052;-78
2023/01/17 11:13:46;;;;;;;31.77;13.65;;;;;;;;;;6268054;28;20052;-78
2023/01/17 11:16:59;;;;;;;29.33;13.07;;;;;;;;;;6268391;28;20057;-76
2023/01/17 11:20:13;;;;;;;26.05;11.80;;;;;;;;;;6267740;28;20044;-79
2023/01/17 11:23:16;;;;;;;22.98;12.15;;;;;;;;;;6269643;28;20103;-70
2023/01/17 11:26:24;;;;;;;19.73;10.33;;;;;;;;;;6268151;28;20046;-79
2023/01/17 11:29:31;;;;;;;22.35;11.20;;;;;;;;;;6267959;28;20049;-78
2023/01/17 11:32:33;;;;;;;24.52;11.32;;;;;;;;;;6267655;28;20123;-75
2023/01/17 11:35:36;;;;;;;20.48;10.10;;;;;;;;;;6269232;28;20056;-71
2023/01/17 11:38:38;;;;;;;22.67;10.05;;;;;;;;;;6265968;28;20109;-74
2023/01/17 11:41:41;;;;;;;18.27;9.65;;;;;;;;;;6268676;28;20055;-76
2023/01/17 11:44:43;;;;;;;18.83;9.13;;;;;;;;;;6266969;28;20061;-78
2023/01/17 11:47:44;;;;;;;18.88;9.45;;;;;;;;;;6267980;28;20065;-77
2023/01/17 11:50:53;;;;;;;16.77;8.57;;;;;;;;;;6268882;28;20068;-76
2023/01/17 11:54:03;;;;;;;13.93;7.68;;;;;;;;;;6268802;28;20064;-73
2023/01/17 11:57:07;;;;;;;16.92;7.82;;;;;;;;;;6268959;28;20057;-76
2023/01/17 12:00:18;;;;;;;16.50;8.45;;;;;;;;;;6269501;28;20049;-76
2023/01/17 12:03:28;;;;;;;15.40;7.95;;;;;;;;;;6266187;28;20068;-77
2023/01/17 12:06:34;;;;;;;13.48;7.82;;;;;;;;;;6268315;28;20120;-76
2023/01/17 12:09:40;;;;;;;11.55;6.90;;;;;;;;;;6266387;28;20084;-75
2023/01/17 12:16:31;;;;;;;12.85;6.05;;;;;;;;;;6266851;28;20103;-76
2023/01/17 12:19:53;;;;;;;12.02;6.40;;;;;;;;;;6267227;28;20218;-77
2023/01/17 12:23:12;;;;;;;10.25;6.22;;;;;;;;;;6265318;28;20104;-75
2023/01/17 12:26:35;;;;;;;12.38;6.50;;;;;;;;;;6266918;28;20053;-76
2023/01/17 12:29:45;;;;;;;11.45;6.60;;;;;;;;;;6267653;28;20116;-77
2023/01/17 12:32:58;;;;;;;13.45;8.00;;;;;;;;;;6267718;28;20068;-77
2023/01/17 12:36:03;;;;;;;12.98;6.95;;;;;;;;;;6266615;28;20088;-76
2023/01/17 12:39:08;;;;;;;12.32;7.38;;;;;;;;;;6268935;28;21061;-77
2023/01/17 12:42:14;;;;;;;14.50;8.52;;;;;;;;;;6266701;28;20051;-74
2023/01/17 12:45:20;;;;;;;15.07;7.85;;;;;;;;;;6265917;28;20324;-70
2023/01/17 12:48:24;;;;;;;53.13;29.80;;;;;;;;;;6269556;28;20067;-82
2023/01/17 12:51:28;;;;;;;78.43;46.05;;;;;;;;;;6268601;28;20048;-77
2023/01/17 12:54:35;;;;;;;81.28;46.35;;;;;;;;;;6265855;28;20114;-78
2023/01/17 12:57:40;;;;;;;21.27;12.05;;;;;;;;;;6267329;28;20045;-75
2023/01/17 13:00:46;;;;;;;19.60;9.45;;;;;;;;;;6264369;28;20053;-75
2023/01/17 13:03:56;;;;;;;17.48;9.73;;;;;;;;;;6266466;28;20595;-76
2023/01/17 13:07:05;;;;;;;16.80;9.75;;;;;;;;;;6267074;28;20052;-76
2023/01/17 13:10:21;;;;;;;16.33;8.85;;;;;;;;;;6266745;28;20921;-80
2023/01/17 13:13:24;;;;;;;96.38;46.42;;;;;;;;;;6265151;28;20045;-79
2023/01/17 13:16:33;;;;;;;93.30;42.42;;;;;;;;;;6269553;28;20129;-80
2023/01/17 13:19:44;;;;;;;57.15;26.25;;;;;;;;;;6267724;28;20052;-78
2023/01/17 13:22:46;;;;;;;45.70;23.58;;;;;;;;;;6268640;28;20057;-76
2023/01/17 13:25:50;;;;;;;20.80;12.38;;;;;;;;;;6268814;28;20086;-80
2023/01/17 13:28:56;;;;;;;60.45;27.63;;;;;;;;;;6267380;28;20060;-79
2023/01/17 13:32:06;;;;;;;21.88;10.45;;;;;;;;;;6268044;28;20051;-78
2023/01/17 13:35:22;;;;;;;13.73;8.40;;;;;;;;;;6268238;28;20111;-82
2023/01/17 13:38:33;;;;;;;14.02;8.02;;;;;;;;;;6266347;28;20045;-82
2023/01/17 13:41:46;;;;;;;12.40;7.72;;;;;;;;;;6267053;28;20339;-79
2023/01/17 13:44:47;;;;;;;12.02;7.40;;;;;;;;;;6264827;28;20245;-81
2023/01/17 13:47:51;;;;;;;11.98;7.63;;;;;;;;;;6267467;28;20041;-79
2023/01/17 13:50:54;;;;;;;14.85;8.02;;;;;;;;;;6268214;28;21263;-79
2023/01/17 13:53:57;;;;;;;13.82;7.80;;;;;;;;;;6263287;28;20296;-80
2023/01/17 13:57:42;;;;;;;12.75;7.63;;;;;;;;;;6269072;28;20103;-79
2023/01/17 14:00:53;;;;;;;12.65;7.30;;;;;;;;;;6264138;28;20045;-79
2023/01/17 14:04:06;;;;;;;13.15;7.95;;;;;;;;;;6264859;28;20112;-77
2023/01/17 14:07:19;;;;;;;13.80;8.18;;;;;;;;;;6265557;28;20329;-80
2023/01/17 14:10:30;;;;;;;14.82;8.48;;;;;;;;;;6263690;28;20048;-80
2023/01/17 14:13:34;;;;;;;15.77;8.20;;;;;;;;;;6264741;28;20296;-80
2023/01/17 14:16:36;;;;;;;14.05;8.20;;;;;;;;;;6266256;28;20057;-78
2023/01/17 14:19:39;;;;;;;12.00;8.27;;;;;;;;;;6265123;28;20240;-77
2023/01/17 14:22:47;;;;;;;13.32;7.72;;;;;;;;;;6264092;28;20059;-76
2023/01/17 14:25:50;;;;;;;15.35;8.20;;;;;;;;;;6267027;28;20119;-82
2023/01/17 14:28:52;;;;;;;11.02;7.43;;;;;;;;;;6265681;28;20272;-81
2023/01/17 14:32:00;;;;;;;12.80;7.63;;;;;;;;;;6267703;28;20061;-79
2023/01/17 14:35:05;;;;;;;12.15;7.72;;;;;;;;;;6264671;28;20049;-78
2023/01/17 14:38:12;;;;;;;;;;;;;;;;;;6264786;28;20072;-80
2023/01/17 14:41:18;;;;;;;11.05;7.18;;;;;;;;;;6265228;28;19923;-80
2023/01/17 14:44:20;;;;;;;12.07;7.40;;;;;;;;;;6265753;28;20061;-82
2023/01/17 14:47:22;;;;;;;12.38;7.80;;;;;;;;;;6265476;28;20069;-80
2023/01/17 14:50:28;;;;;;;14.85;8.65;;;;;;;;;;6265472;28;20053;-73
2023/01/17 14:53:31;;;;;;;14.15;8.23;;;;;;;;;;6263717;28;20057;-79
2023/01/17 14:56:33;;;;;;;22.90;10.90;;;;;;;;;;6263801;28;20112;-74
2023/01/17 14:59:35;;;;;;;13.52;8.13;;;;;;;;;;6265362;28;20049;-77
2023/01/17 15:02:41;;;;;;;11.52;7.13;;;;;;;;;;6263928;28;20061;-80
2023/01/17 15:05:46;;;;;;;11.38;7.32;;;;;;;;;;6264653;28;20057;-78
2023/01/17 15:08:50;;;;;;;9.43;6.63;;;;;;;;;;6263879;28;20049;-79
2023/01/17 15:11:53;;;;;;;11.32;6.90;;;;;;;;;;6265005;28;20052;-79
2023/01/17 15:14:57;;;;;;;12.52;6.75;;;;;;;;;;6266574;28;20057;-81
2023/01/17 15:18:18;;;;;;;11.00;6.68;;;;;;;;;;6266542;28;20061;-79
2023/01/17 15:21:22;;;;;;;10.55;6.32;;;;;;;;;;6264694;28;20056;-81
2023/01/17 15:24:26;;;;;;;7.50;5.50;;;;;;;;;;6265891;28;20057;-76
2023/01/17 15:27:28;;;;;;;7.75;5.28;;;;;;;;;;6264054;28;20049;-79
2023/01/17 15:30:30;;;;;;;10.27;6.03;;;;;;;;;;6267991;28;20059;-78
2023/01/17 15:33:32;;;;;;;9.20;5.68;;;;;;;;;;6264537;28;20060;-77
2023/01/17 15:36:35;;;;;;;9.15;6.22;;;;;;;;;;6266277;28;20067;-79
2023/01/17 15:39:39;;;;;;;7.78;5.80;;;;;;;;;;6263813;28;20103;-76
2023/01/17 15:42:43;;;;;;;7.63;5.55;;;;;;;;;;6264625;28;20049;-76
2023/01/17 15:45:54;;;;;;;8.32;5.90;;;;;;;;;;6265254;28;20045;-77
2023/01/17 15:49:07;;;;;;;8.18;5.60;;;;;;;;;;6268188;28;20057;-79
2023/01/17 15:52:15;;;;;;;9.05;5.97;;;;;;;;;;6266361;28;20052;-80
2023/01/17 15:55:22;;;;;;;9.48;6.15;;;;;;;;;;6262670;28;20325;-81
2023/01/17 15:58:26;;;;;;;9.98;6.18;;;;;;;;;;6269155;28;20104;-81
2023/01/17 16:01:28;;;;;;;10.45;6.82;;;;;;;;;;6267975;28;20045;-82
2023/01/17 16:04:33;;;;;;;9.73;6.72;;;;;;;;;;6272036;28;20053;-79
2023/01/17 16:07:36;;;;;;;12.20;6.32;;;;;;;;;;6271126;28;20114;-79
2023/01/17 16:10:38;;;;;;;10.15;6.32;;;;;;;;;;6265386;28;20327;-74
2023/01/17 16:13:42;;;;;;;9.45;6.30;;;;;;;;;;6271120;28;20111;-77
2023/01/17 16:16:50;;;;;;;10.00;6.60;;;;;;;;;;6268365;28;20076;-79
2023/01/17 16:19:52;;;;;;;7.93;5.70;;;;;;;;;;6269992;28;20083;-80
2023/01/17 16:22:55;;;;;;;8.55;6.00;;;;;;;;;;6266868;28;20057;-78
2023/01/17 16:25:56;;;;;;;10.38;6.40;;;;;;;;;;6271817;28;20052;-78
2023/01/17 16:28:58;;;;;;;194.98;94.22;;;;;;;;;;6268423;28;20083;-76
2023/01/17 16:32:06;;;;;;;76.45;33.58;;;;;;;;;;6270590;28;20400;-81
2023/01/17 16:35:09;;;;;;;32.53;16.38;;;;;;;;;;6269968;28;20336;-81
2023/01/17 16:38:15;;;;;;;39.55;17.50;;;;;;;;;;6270382;28;20850;-77
2023/01/17 16:41:17;;;;;;;87.05;39.10;;;;;;;;;;6269629;28;20053;-79
2023/01/17 16:44:19;;;;;;;51.88;26.58;;;;;;;;;;6273086;28;20075;-80
2023/01/17 16:47:21;;;;;;;30.35;17.33;;;;;;;;;;6271262;28;20050;-77
2023/01/17 16:50:24;;;;;;;13.77;9.00;;;;;;;;;;6273348;28;20068;-77
2023/01/17 16:53:28;;;;;;;10.07;6.65;;;;;;;;;;6265145;28;20063;-77
2023/01/17 16:56:30;;;;;;;10.15;7.03;;;;;;;;;;6267887;28;20063;-76
2023/01/17 16:59:31;;;;;;;8.45;6.15;;;;;;;;;;6270107;28;20064;-77
2023/01/17 17:02:33;;;;;;;11.40;7.47;;;;;;;;;;6271108;28;20193;-75
2023/01/17 17:05:36;;;;;;;10.40;7.18;;;;;;;;;;6269799;28;20064;-77
2023/01/17 17:08:40;;;;;;;13.52;7.15;;;;;;;;;;6267853;28;20260;-79
2023/01/17 17:11:42;;;;;;;9.85;7.32;;;;;;;;;;6265302;28;20115;-77
2023/01/17 17:14:43;;;;;;;9.75;6.55;;;;;;;;;;6267753;28;20135;-79
2023/01/17 17:17:46;;;;;;;11.35;8.05;;;;;;;;;;6267509;28;20057;-77
2023/01/17 17:20:48;;;;;;;11.13;7.25;;;;;;;;;;6264523;28;20060;-76
2023/01/17 17:23:55;;;;;;;12.00;8.18;;;;;;;;;;6265478;28;20056;-76
2023/01/17 17:26:57;;;;;;;12.48;7.68;;;;;;;;;;6263402;28;20136;-77
2023/01/17 17:29:59;;;;;;;13.15;7.93;;;;;;;;;;6265814;28;20283;-75
2023/01/17 17:33:03;;;;;;;15.13;8.55;;;;;;;;;;6263926;28;20382;-77
2023/01/17 17:36:05;;;;;;;;;;;;;;;;;;6266358;28;20047;-77
2023/01/17 17:39:13;;;;;;;16.92;9.55;;;;;;;;;;6264978;28;20203;-77
2023/01/17 17:42:15;;;;;;;18.00;10.15;;;;;;;;;;6263100;28;20290;-76
2023/01/17 17:45:17;;;;;;;16.35;10.50;;;;;;;;;;6263601;28;20128;-78
2023/01/17 17:48:19;;;;;;;15.10;9.15;;;;;;;;;;6259228;28;20064;-77
2023/01/17 17:51:25;;;;;;;13.75;9.18;;;;;;;;;;6264617;28;20065;-77
2023/01/17 17:54:28;;;;;;;13.60;8.98;;;;;;;;;;6260879;28;20072;-78
2023/01/17 17:57:30;;;;;;;14.70;9.15;;;;;;;;;;6260477;28;20068;-70
2023/01/17 18:00:32;;;;;;;15.27;9.82;;;;;;;;;;6256843;28;20063;-74
2023/01/17 18:03:33;;;;;;;16.77;9.35;;;;;;;;;;6257963;28;20075;-71
2023/01/17 18:06:37;;;;;;;21.50;12.18;;;;;;;;;;6261213;28;20229;-77
2023/01/17 18:09:40;;;;;;;22.13;12.03;;;;;;;;;;6265112;28;21078;-72
2023/01/17 18:12:42;;;;;;;27.08;11.82;;;;;;;;;;6255759;28;20110;-77
2023/01/17 18:15:43;;;;;;;23.10;12.82;;;;;;;;;;6257380;28;20055;-78
2023/01/17 18:18:47;;;;;;;20.80;12.65;;;;;;;;;;6256430;28;20057;-77
2023/01/17 18:21:50;;;;;;;19.58;11.30;;;;;;;;;;6263218;28;20057;-78
2023/01/17 18:24:53;;;;;;;17.67;10.57;;;;;;;;;;6256029;28;20053;-79
2023/01/17 18:27:54;;;;;;;20.58;10.70;;;;;;;;;;6267271;28;20060;-79
2023/01/17 18:30:56;;;;;;;18.23;10.52;;;;;;;;;;6267025;28;20353;-76
2023/01/17 18:33:59;;;;;;;21.20;10.52;;;;;;;;;;6263575;28;20266;-72
2023/01/17 18:37:01;;;;;;;18.90;10.77;;;;;;;;;;6262112;28;20045;-75
2023/01/17 18:40:05;;;;;;;16.13;10.20;;;;;;;;;;6262764;28;20061;-77
2023/01/17 18:43:07;;;;;;;18.40;11.57;;;;;;;;;;6260851;28;20049;-77
2023/01/17 18:46:10;;;;;;;18.02;10.95;;;;;;;;;;6262609;28;20053;-76
2023/01/17 18:49:14;;;;;;;19.73;10.90;;;;;;;;;;6261330;28;20057;-75
2023/01/17 18:52:18;;;;;;;19.80;11.63;;;;;;;;;;6262792;28;20053;-77
2023/01/17 18:55:21;;;;;;;23.90;12.32;;;;;;;;;;6266347;28;20048;-77
2023/01/17 18:58:23;;;;;;;23.80;12.20;;;;;;;;;;6267467;28;20226;-72
2023/01/17 19:01:27;;;;;;;21.17;12.13;;;;;;;;;;6266951;28;20106;-74
2023/01/17 19:04:32;;;;;;;23.58;12.18;;;;;;;;;;6266638;28;20057;-79
2023/01/17 19:07:34;;;;;;;26.10;11.52;;;;;;;;;;6270398;28;20072;-75
2023/01/17 19:10:37;;;;;;;17.00;10.50;;;;;;;;;;6270606;28;20552;-74
2023/01/17 19:13:40;;;;;;;17.60;10.63;;;;;;;;;;6266559;28;20061;-76
2023/01/17 19:16:42;;;;;;;16.40;10.10;;;;;;;;;;6261347;28;20345;-74